Terminal Aerodrome Forecast
Issued by NWS Wilmington, NC

Home | Current Version | Previous Version | Text Only | Print | Product List | Glossary On
Versions: 1 2 3 4 5 6 7 8 9 10 11 12 13 14 15 16 17 18
063
FTUS42 KILM 271720
TAFLBT
TAF
KLBT 271720Z 2718/2818 VRB05KT P6SM BKN045
     FM280200 19005KT P6SM SCT140
     FM280800 20004KT P6SM BKN100 PROB30 2811/2814 4SM -TSRA
      OVC015CB
     FM281400 21008KT P6SM BKN060 PROB30 2814/2818 4SM -TSRA
      OVC015CB=

USA.gov is the U.S. government's official web portal to all federal, state and local government web resources and services.